createdAt,value
2023-09-23T00:01:27.049Z,47.10
2023-09-23T00:04:38.155Z,47.10
2023-09-23T00:07:54.178Z,47.00
2023-09-23T00:11:08.037Z,46.90
2023-09-23T00:14:32.856Z,47.10
2023-09-23T00:17:54.502Z,47.20
2023-09-23T00:21:12.159Z,47.10
2023-09-23T00:24:28.107Z,47.70
2023-09-23T00:27:42.836Z,47.60
2023-09-23T00:30:56.384Z,47.20
2023-09-23T00:34:12.556Z,47.20
2023-09-23T00:37:29.542Z,47.10
2023-09-23T00:40:44.508Z,47.10
2023-09-23T00:43:56.825Z,47.10
2023-09-23T00:47:13.338Z,47.20
2023-09-23T00:50:27.076Z,47.20
2023-09-23T00:53:41.263Z,47.30
2023-09-23T00:56:54.757Z,47.20
2023-09-23T01:00:11.290Z,46.20
2023-09-23T01:03:23.726Z,45.70
2023-09-23T01:06:36.769Z,45.10
2023-09-23T01:09:48.232Z,44.70
2023-09-23T01:13:00.150Z,44.40
2023-09-23T01:16:16.629Z,43.70
2023-09-23T01:19:32.891Z,43.60
2023-09-23T01:22:46.749Z,44.30
2023-09-23T01:26:00.837Z,44.40
2023-09-23T01:29:13.694Z,44.70
2023-09-23T01:32:30.263Z,44.70
2023-09-23T01:35:43.459Z,44.80
2023-09-23T01:38:58.140Z,45.00
2023-09-23T01:42:06.124Z,45.30
2023-09-23T01:45:22.779Z,46.10
2023-09-23T01:48:36.972Z,46.50
2023-09-23T01:51:52.306Z,46.50
2023-09-23T01:55:07.820Z,46.70
2023-09-23T01:58:21.637Z,47.30
2023-09-23T02:01:35.425Z,47.70
2023-09-23T02:04:48.702Z,47.70
2023-09-23T02:08:02.184Z,47.50
2023-09-23T02:11:14.106Z,47.40
2023-09-23T02:14:25.395Z,47.70
2023-09-23T02:17:39.519Z,47.90
2023-09-23T02:20:53.393Z,47.90
2023-09-23T02:24:10.243Z,47.80
2023-09-23T02:27:25.457Z,47.60
2023-09-23T02:30:37.607Z,48.40
2023-09-23T02:33:46.745Z,47.90
2023-09-23T02:37:00.246Z,48.00
2023-09-23T02:40:17.727Z,47.90
2023-09-23T02:43:30.580Z,47.80
2023-09-23T02:46:43.950Z,47.90
2023-09-23T02:49:59.574Z,47.90
2023-09-23T02:53:14.603Z,47.90
2023-09-23T02:56:27.741Z,47.70
2023-09-23T02:59:42.608Z,47.90
2023-09-23T03:02:56.980Z,47.90
2023-09-23T03:06:16.183Z,47.90
2023-09-23T03:09:31.748Z,47.80
2023-09-23T03:12:47.916Z,47.90
2023-09-23T03:16:05.064Z,47.90
2023-09-23T03:19:17.949Z,47.90
2023-09-23T03:22:28.590Z,47.90
2023-09-23T03:25:40.266Z,47.80
2023-09-23T03:28:56.706Z,48.00
2023-09-23T03:32:10.543Z,48.20
2023-09-23T03:35:26.687Z,48.10
2023-09-23T03:38:39.230Z,48.10
2023-09-23T03:41:53.767Z,48.00
2023-09-23T03:45:09.820Z,48.50
2023-09-23T03:48:21.687Z,48.60
2023-09-23T03:51:36.573Z,47.90
2023-09-23T03:54:50.124Z,47.90
2023-09-23T03:58:04.002Z,48.50
2023-09-23T04:01:19.725Z,48.50
2023-09-23T04:04:32.548Z,48.50
2023-09-23T04:07:49.225Z,48.20
2023-09-23T04:11:02.795Z,47.70
2023-09-23T04:14:16.487Z,48.30
2023-09-23T04:17:32.999Z,48.20
2023-09-23T04:20:47.499Z,48.10
2023-09-23T04:23:58.660Z,47.80
2023-09-23T04:27:09.013Z,47.90
2023-09-23T04:30:22.991Z,47.90
2023-09-23T04:33:35.658Z,47.90
2023-09-23T04:36:50.340Z,47.60
2023-09-23T04:40:02.761Z,47.70
2023-09-23T04:43:12.179Z,47.70
2023-09-23T04:46:21.566Z,47.70
2023-09-23T04:49:30.945Z,47.60
2023-09-23T04:52:40.283Z,47.40
2023-09-23T04:55:54.636Z,47.40
2023-09-23T04:59:08.027Z,47.50
2023-09-23T05:02:22.810Z,47.60
2023-09-23T05:05:35.411Z,47.50
2023-09-23T05:08:47.383Z,47.40
2023-09-23T05:11:58.731Z,47.40
2023-09-23T05:15:13.023Z,47.50
2023-09-23T05:18:27.652Z,47.60
2023-09-23T05:21:40.759Z,47.50
2023-09-23T05:24:53.345Z,47.40
2023-09-23T05:28:05.770Z,47.60
2023-09-23T05:31:18.183Z,47.70
2023-09-23T05:34:27.281Z,47.70
2023-09-23T05:37:40.178Z,47.50
2023-09-23T05:40:55.599Z,47.60
2023-09-23T05:44:10.361Z,47.70
2023-09-23T05:47:22.352Z,47.80
2023-09-23T05:50:35.098Z,47.70
2023-09-23T05:53:45.845Z,47.70
2023-09-23T05:56:56.686Z,47.70
2023-09-23T06:00:11.065Z,47.80
2023-09-23T06:03:23.342Z,47.80
2023-09-23T06:06:37.902Z,47.80
2023-09-23T06:09:53.705Z,47.80
2023-09-23T06:13:03.146Z,47.80
2023-09-23T06:16:15.503Z,47.80
2023-09-23T06:19:30.529Z,47.90
2023-09-23T06:22:43.290Z,47.80
2023-09-23T06:26:03.776Z,47.90
2023-09-23T06:29:17.658Z,48.00
2023-09-23T06:32:27.472Z,48.00
2023-09-23T06:35:41.962Z,48.00
2023-09-23T06:38:55.680Z,48.00
2023-09-23T06:42:09.344Z,48.00
2023-09-23T06:45:20.799Z,48.10
2023-09-23T06:48:33.024Z,48.00
2023-09-23T06:51:47.827Z,48.00
2023-09-23T06:55:01.476Z,48.00
2023-09-23T06:58:15.254Z,48.10
2023-09-23T07:01:26.986Z,48.10
2023-09-23T07:04:40.390Z,48.10
2023-09-23T07:07:56.762Z,48.20
2023-09-23T07:11:05.555Z,48.20
2023-09-23T07:14:15.709Z,48.20
2023-09-23T07:17:32.138Z,48.10
2023-09-23T07:20:47.462Z,48.20
2023-09-23T07:23:58.392Z,48.20
2023-09-23T07:27:12.181Z,48.10
2023-09-23T07:30:25.102Z,48.20
2023-09-23T07:33:37.348Z,48.10
2023-09-23T07:36:48.897Z,48.10
2023-09-23T07:40:02.727Z,48.10
2023-09-23T07:43:11.960Z,48.20
2023-09-23T07:46:24.654Z,48.20
2023-09-23T07:49:36.308Z,48.20
2023-09-23T07:52:47.353Z,48.20
2023-09-23T07:55:58.862Z,48.20
2023-09-23T07:59:10.642Z,48.20
2023-09-23T08:02:22.022Z,48.20
2023-09-23T08:05:35.049Z,48.20
2023-09-23T08:08:45.857Z,48.20
2023-09-23T08:11:55.586Z,48.20
2023-09-23T08:15:07.088Z,48.30
2023-09-23T08:18:21.334Z,48.20
2023-09-23T08:21:33.102Z,48.20
2023-09-23T08:24:45.882Z,48.20
2023-09-23T08:27:56.615Z,48.30
2023-09-23T08:31:06.022Z,48.30
2023-09-23T08:34:18.706Z,48.30
2023-09-23T08:37:29.769Z,48.20
2023-09-23T08:40:40.762Z,48.20
2023-09-23T08:43:54.018Z,48.30
2023-09-23T08:47:07.461Z,48.30
2023-09-23T08:50:19.684Z,48.20
2023-09-23T08:53:29.243Z,48.20
2023-09-23T08:56:38.039Z,48.30
2023-09-23T08:59:51.658Z,48.30
2023-09-23T09:03:04.419Z,48.20
2023-09-23T09:06:25.320Z,48.20
2023-09-23T09:09:36.405Z,48.20
2023-09-23T09:12:48.386Z,48.30
2023-09-23T09:15:58.214Z,48.20
2023-09-23T09:19:11.478Z,48.20
2023-09-23T09:22:25.927Z,48.20
2023-09-23T09:25:36.262Z,48.20
2023-09-23T09:28:45.712Z,48.20
2023-09-23T09:31:55.353Z,48.30
2023-09-23T09:35:09.297Z,48.20
2023-09-23T09:38:20.934Z,48.20
2023-09-23T09:41:38.765Z,48.30
2023-09-23T09:44:48.505Z,48.30
2023-09-23T09:48:03.165Z,48.20
2023-09-23T09:51:18.294Z,48.30
2023-09-23T09:54:29.889Z,48.40
2023-09-23T09:57:41.057Z,48.40
2023-09-23T10:00:54.919Z,48.40
2023-09-23T10:04:08.218Z,48.40
2023-09-23T10:07:24.624Z,48.40
2023-09-23T10:10:39.792Z,48.40
2023-09-23T10:13:52.435Z,48.40
2023-09-23T10:17:07.574Z,48.40
2023-09-23T10:20:27.424Z,48.30
2023-09-23T10:23:45.573Z,48.40
2023-09-23T10:26:57.080Z,48.40
2023-09-23T10:30:10.620Z,48.40
2023-09-23T10:33:21.093Z,48.40
2023-09-23T10:36:32.944Z,48.30
2023-09-23T10:39:42.473Z,48.40
2023-09-23T10:42:52.136Z,48.30
2023-09-23T10:46:07.072Z,48.40
2023-09-23T10:49:20.289Z,48.30
2023-09-23T10:52:33.026Z,48.30
2023-09-23T10:55:46.401Z,48.40
2023-09-23T10:59:00.001Z,48.30
2023-09-23T11:02:13.090Z,48.40
2023-09-23T11:05:25.609Z,48.30
2023-09-23T11:08:37.978Z,48.30
2023-09-23T11:11:48.916Z,48.30
2023-09-23T11:15:02.365Z,48.40
2023-09-23T11:18:20.767Z,48.40
2023-09-23T11:21:31.705Z,48.40
2023-09-23T11:24:47.920Z,48.40
2023-09-23T11:27:59.425Z,48.30
2023-09-23T11:31:06.755Z,48.90
2023-09-23T11:34:16.614Z,48.40
2023-09-23T11:37:25.898Z,48.40
2023-09-23T11:40:33.435Z,48.50
2023-09-23T11:43:40.809Z,48.40
2023-09-23T11:46:48.242Z,48.40
2023-09-23T11:49:58.170Z,48.50
2023-09-23T11:53:08.423Z,48.50
2023-09-23T11:56:17.677Z,48.40
2023-09-23T11:59:31.860Z,48.40
2023-09-23T12:02:43.346Z,48.40
2023-09-23T12:05:54.944Z,48.60
2023-09-23T12:09:06.631Z,48.60
2023-09-23T12:12:16.676Z,48.60
2023-09-23T12:15:27.668Z,48.70
2023-09-23T12:18:40.668Z,48.80
2023-09-23T12:21:51.956Z,49.50
2023-09-23T12:25:05.803Z,49.00
2023-09-23T12:28:15.198Z,49.10
2023-09-23T12:31:22.891Z,49.20
2023-09-23T12:34:38.095Z,49.20
2023-09-23T12:37:48.641Z,49.20
2023-09-23T12:41:05.129Z,49.10
2023-09-23T12:44:18.167Z,48.90
2023-09-23T12:47:24.844Z,48.90
2023-09-23T12:50:37.709Z,48.90
2023-09-23T12:53:45.506Z,49.00
2023-09-23T12:56:55.453Z,49.50
2023-09-23T13:00:06.602Z,48.90
2023-09-23T13:03:16.660Z,48.90
2023-09-23T13:06:26.313Z,48.90
2023-09-23T13:09:37.900Z,48.80
2023-09-23T13:12:48.851Z,48.90
2023-09-23T13:16:00.918Z,48.90
2023-09-23T13:19:12.730Z,49.10
2023-09-23T13:22:22.948Z,49.00
2023-09-23T13:25:35.025Z,49.00
2023-09-23T13:28:47.854Z,48.90
2023-09-23T13:31:58.145Z,48.80
2023-09-23T13:35:08.986Z,48.60
2023-09-23T13:38:20.299Z,48.50
2023-09-23T13:41:29.128Z,48.30
2023-09-23T13:44:38.258Z,48.10
2023-09-23T13:47:47.432Z,48.00
2023-09-23T13:51:02.790Z,47.80
2023-09-23T13:54:12.292Z,47.70
2023-09-23T13:57:30.140Z,47.60
2023-09-23T14:00:37.673Z,47.50
2023-09-23T14:03:45.298Z,47.30
2023-09-23T14:06:55.397Z,47.20
2023-09-23T14:10:18.653Z,47.20
2023-09-23T14:13:21.332Z,47.00
2023-09-23T14:16:33.803Z,46.90
2023-09-23T14:19:46.743Z,46.90
2023-09-23T14:22:56.639Z,46.80
2023-09-23T14:26:08.167Z,46.60
2023-09-23T14:29:20.935Z,46.50
2023-09-23T14:32:30.395Z,46.40
2023-09-23T14:35:44.514Z,46.50
2023-09-23T14:38:55.012Z,46.40
2023-09-23T14:42:03.722Z,46.40
2023-09-23T14:45:19.740Z,46.40
2023-09-23T14:48:29.712Z,46.50
2023-09-23T14:51:41.056Z,46.50
2023-09-23T14:54:50.494Z,46.40
2023-09-23T14:58:03.452Z,46.30
2023-09-23T15:01:12.990Z,46.40
2023-09-23T15:04:26.047Z,46.60
2023-09-23T15:07:34.774Z,46.40
2023-09-23T15:10:43.605Z,46.50
2023-09-23T15:13:52.921Z,46.30
2023-09-23T15:17:03.135Z,46.40
2023-09-23T15:20:17.971Z,46.40
2023-09-23T15:23:29.871Z,46.40
2023-09-23T15:26:41.145Z,46.40
2023-09-23T15:29:55.970Z,46.20
2023-09-23T15:33:05.546Z,46.40
2023-09-23T15:36:15.416Z,46.50
2023-09-23T15:39:29.739Z,46.30
2023-09-23T15:42:39.631Z,46.40
2023-09-23T15:45:47.200Z,46.50
2023-09-23T15:48:59.260Z,46.50
2023-09-23T15:52:13.309Z,46.50
2023-09-23T15:55:23.786Z,46.40
2023-09-23T15:58:33.596Z,46.30
2023-09-23T16:01:44.949Z,46.30
2023-09-23T16:04:56.066Z,46.80
2023-09-23T16:08:04.227Z,46.40
2023-09-23T16:11:18.725Z,46.40
2023-09-23T16:14:29.078Z,46.30
2023-09-23T16:17:39.647Z,46.40
2023-09-23T16:20:52.534Z,46.60
2023-09-23T16:24:03.044Z,47.00
2023-09-23T16:27:14.443Z,47.60
2023-09-23T16:30:27.742Z,47.80
2023-09-23T16:33:38.878Z,48.00
2023-09-23T16:36:49.833Z,48.10
2023-09-23T16:40:00.494Z,48.10
2023-09-23T16:43:13.240Z,47.90
2023-09-23T16:46:22.361Z,47.80
2023-09-23T16:49:33.784Z,47.80
2023-09-23T16:52:45.911Z,47.80
2023-09-23T16:55:55.241Z,47.80
2023-09-23T16:59:08.012Z,47.60
2023-09-23T17:02:19.940Z,47.60
2023-09-23T17:05:31.675Z,47.40
2023-09-23T17:08:43.069Z,47.40
2023-09-23T17:11:55.016Z,47.40
2023-09-23T17:15:03.383Z,47.20
2023-09-23T17:18:17.606Z,47.00
2023-09-23T17:21:27.364Z,46.90
2023-09-23T17:24:37.329Z,46.80
2023-09-23T17:27:51.700Z,46.70
2023-09-23T17:31:03.253Z,46.70
2023-09-23T17:34:17.452Z,46.60
2023-09-23T17:37:26.722Z,46.70
2023-09-23T17:40:34.325Z,46.60
2023-09-23T17:43:43.672Z,46.50
2023-09-23T17:46:52.191Z,46.40
2023-09-23T17:50:01.973Z,46.40
2023-09-23T17:53:16.323Z,46.50
2023-09-23T17:56:26.279Z,46.40
2023-09-23T17:59:37.438Z,46.30
2023-09-23T18:02:46.926Z,46.30
2023-09-23T18:05:57.536Z,46.30
2023-09-23T18:09:08.410Z,46.40
2023-09-23T18:12:20.655Z,46.30
2023-09-23T18:15:32.270Z,46.30
2023-09-23T18:18:41.087Z,46.30
2023-09-23T18:21:48.854Z,46.40
2023-09-23T18:24:58.985Z,46.30
2023-09-23T18:28:09.313Z,46.20
2023-09-23T18:31:22.646Z,46.30
2023-09-23T18:34:35.359Z,46.30
2023-09-23T18:37:48.105Z,46.40
2023-09-23T18:40:57.774Z,46.30
2023-09-23T18:44:06.562Z,46.30
2023-09-23T18:47:17.770Z,46.40
2023-09-23T18:50:31.193Z,46.40
2023-09-23T18:53:42.540Z,46.40
2023-09-23T18:56:56.740Z,46.30
2023-09-23T19:00:06.292Z,46.10
2023-09-23T19:03:18.890Z,46.20
2023-09-23T19:06:30.936Z,46.20
2023-09-23T19:09:42.888Z,46.20
2023-09-23T19:12:55.261Z,46.20
2023-09-23T19:16:04.724Z,46.20
2023-09-23T19:19:17.442Z,46.30
2023-09-23T19:25:42.865Z,46.30
2023-09-23T19:28:54.066Z,46.20
2023-09-23T19:32:06.556Z,46.20
2023-09-23T19:35:20.650Z,46.20
2023-09-23T19:38:31.294Z,46.30
2023-09-23T19:41:42.935Z,46.30
2023-09-23T19:44:55.237Z,46.30
2023-09-23T19:48:08.287Z,46.30
2023-09-23T19:51:19.265Z,46.30
2023-09-23T19:54:30.987Z,46.30
2023-09-23T20:01:03.297Z,46.30
2023-09-23T20:04:15.961Z,46.30
2023-09-23T20:07:25.401Z,46.30
2023-09-23T20:10:37.389Z,46.40
2023-09-23T20:13:50.027Z,46.30
2023-09-23T20:17:06.302Z,46.30
2023-09-23T20:20:20.276Z,46.40
2023-09-23T20:23:33.009Z,46.40
2023-09-23T20:26:48.281Z,46.40
2023-09-23T20:30:07.203Z,46.90
2023-09-23T20:33:11.866Z,46.30
2023-09-23T20:36:23.059Z,46.30
2023-09-23T20:39:30.906Z,46.40
2023-09-23T20:42:39.171Z,46.40
2023-09-23T20:45:52.832Z,46.50
2023-09-23T20:49:01.303Z,46.40
2023-09-23T20:52:14.312Z,46.50
2023-09-23T20:55:23.754Z,46.50
2023-09-23T20:58:37.932Z,46.40
2023-09-23T21:01:48.386Z,46.40
2023-09-23T21:05:01.740Z,46.40
2023-09-23T21:08:14.920Z,46.50
2023-09-23T21:11:27.078Z,46.50
2023-09-23T21:14:39.354Z,46.50
2023-09-23T21:17:49.908Z,46.40
2023-09-23T21:20:58.418Z,46.40
2023-09-23T21:24:11.974Z,46.50
2023-09-23T21:27:24.613Z,46.50
2023-09-23T21:30:34.687Z,46.40
2023-09-23T21:33:45.997Z,46.40
2023-09-23T21:36:54.199Z,46.50
2023-09-23T21:40:09.998Z,47.10
2023-09-23T21:43:25.901Z,46.50
2023-09-23T21:46:35.851Z,46.60
2023-09-23T21:49:47.172Z,46.50
2023-09-23T21:52:58.052Z,46.50
2023-09-23T21:56:09.346Z,46.60
2023-09-23T21:59:23.727Z,46.50
2023-09-23T22:02:32.744Z,46.50
2023-09-23T22:05:45.897Z,46.50
2023-09-23T22:08:57.625Z,46.60
2023-09-23T22:12:11.134Z,46.50
2023-09-23T22:15:22.995Z,46.50
2023-09-23T22:18:37.140Z,46.50
2023-09-23T22:21:46.836Z,46.50
2023-09-23T22:24:59.524Z,46.60
2023-09-23T22:28:12.925Z,46.60
2023-09-23T22:31:22.578Z,46.50
2023-09-23T22:34:35.996Z,46.50
2023-09-23T22:37:47.415Z,46.60
2023-09-23T22:40:59.462Z,46.60
2023-09-23T22:44:09.764Z,46.60
2023-09-23T22:47:20.046Z,46.50
2023-09-23T22:50:33.672Z,46.60
2023-09-23T22:53:43.714Z,46.60
2023-09-23T22:56:56.090Z,46.70
2023-09-23T23:00:06.163Z,46.60
2023-09-23T23:03:15.745Z,46.60
2023-09-23T23:06:26.887Z,46.60
2023-09-23T23:09:40.338Z,46.60
2023-09-23T23:12:49.784Z,46.70
2023-09-23T23:16:04.756Z,46.70
2023-09-23T23:19:21.747Z,46.70
2023-09-23T23:22:34.381Z,46.70
2023-09-23T23:25:44.344Z,46.60
2023-09-23T23:28:54.004Z,47.20
2023-09-23T23:32:03.525Z,46.60
2023-09-23T23:35:18.482Z,46.60
2023-09-23T23:38:32.034Z,46.50
2023-09-23T23:41:44.103Z,46.50
2023-09-23T23:44:57.648Z,46.60
2023-09-23T23:48:07.036Z,46.60
2023-09-23T23:51:17.847Z,46.60
2023-09-23T23:54:29.375Z,46.70
2023-09-23T23:57:40.011Z,46.70
